首页
METAR-TAF:

METAR-TAF

机场 :

The Dalles, 俄勒冈州, 美国

纬度: 45-37-07N, 经度: 121-10-02W, 海拔: 75米

当前天气观测

该预报发布于47分钟前的12:53 UTC
静风
温度 12°C
湿度 71%
气压 1020 hPa
能見度: 16.1公里
天空无云

METAR: KDLS 231253Z AUTO 00000KT 10SM CLR 12/07 A3011 RMK AO2 SLP195 T01220072

时间: 06:40 (13:40 UTC)

预报

该预报发布于2小时和20分钟前的11:20 UTC
预报有效从23日的 12点(UTC)到 24日的 12点(UTC)
风速10节,风向西转西北
能見度: 10公里
天空无云
从 23日的 1800点(UTC)
风速15节,风向西北,有时为25节阵风
能見度: 10公里
天空无云

TAF: KDLS 231120Z 2312/2412 30010KT P6SM SKC FM231800 32015G25KT P6SM SKC

超过4000个机场的气象观测和天气预报(METAR&TAF报告)。

可查询的气象台以黄色和红色小点在地图上表示。

将鼠标移到小点上方,可查看气象台名称。

然后点击查看天气观测和预报。

如需切换地图:点击带黑十字的绿色按钮放大地图;点击带横线的绿色按钮缩小地图;或者点击绿色箭头查看邻近地区的地图。


METAR-TAF: